Time;durP1;ratioP1;P1;durP2;ratioP2;P2;SDS_P1;SDS_P2;PMS_P1;PMS_P2;Temp;Humidity;BMP_temperature;BMP_pressure;BME280_temperature;BME280_humidity;BME280_pressure;Samples;Min_cycle;Max_cycle;Signal;HPM_P1;HPM_P2
2023/08/05 00:01:12;;;;;;;5.23;4.73;;;18.30;99.90;;;;;;5049356;28;20305;-69
2023/08/05 00:03:38;;;;;;;5.17;4.20;;;18.30;99.90;;;;;;5067729;28;20581;-69
2023/08/05 00:06:03;;;;;;;5.50;5.00;;;18.50;99.90;;;;;;5065274;28;20208;-69
2023/08/05 00:08:29;;;;;;;4.90;4.40;;;18.20;99.90;;;;;;5047455;28;20185;-69
2023/08/05 00:10:54;;;;;;;4.57;4.27;;;18.30;99.90;;;;;;5066840;28;20294;-69
2023/08/05 00:13:20;;;;;;;9.10;5.00;;;18.20;99.90;;;;;;5067377;28;20188;-69
2023/08/05 00:15:46;;;;;;;5.20;4.40;;;18.20;99.90;;;;;;5067125;28;20208;-70
2023/08/05 00:18:11;;;;;;;6.37;4.57;;;18.30;99.90;;;;;;5067162;28;20305;-69
2023/08/05 00:20:37;;;;;;;5.07;4.57;;;18.20;99.90;;;;;;5066940;28;20219;-69
2023/08/05 00:23:03;;;;;;;4.93;4.53;;;18.30;99.90;;;;;;5048949;28;20310;-69
2023/08/05 00:25:28;;;;;;;5.03;4.57;;;18.30;99.90;;;;;;5067817;28;20197;-69
2023/08/05 00:27:54;;;;;;;5.50;4.60;;;18.10;99.90;;;;;;5064082;28;20543;-69
2023/08/05 00:30:20;;;;;;;4.67;4.27;;;18.10;99.90;;;;;;5067114;28;20199;-69
2023/08/05 00:32:45;;;;;;;4.60;4.10;;;18.00;99.90;;;;;;5049665;28;20177;-69
2023/08/05 00:35:11;;;;;;;5.27;4.30;;;17.90;99.90;;;;;;5067032;28;20240;-69
2023/08/05 00:37:36;;;;;;;4.80;4.40;;;18.00;99.90;;;;;;5065911;28;20185;-69
2023/08/05 00:40:05;;;;;;;4.60;4.20;;;18.10;99.90;;;;;;5048115;28;20193;-69
2023/08/05 00:42:31;;;;;;;5.47;4.70;;;18.00;99.90;;;;;;5064897;28;20556;-69
2023/08/05 00:44:57;;;;;;;5.40;4.90;;;18.10;99.90;;;;;;5067616;28;20275;-69
2023/08/05 00:47:23;;;;;;;5.03;4.60;;;18.10;99.90;;;;;;5067768;28;20315;-69
2023/08/05 00:49:51;;;;;;;4.77;4.37;;;18.10;99.90;;;;;;5067212;28;20184;-69
2023/08/05 00:52:18;;;;;;;4.75;4.35;;;18.10;99.90;;;;;;5065166;28;20530;-69
2023/08/05 00:54:45;;;;;;;5.93;4.22;;;18.10;99.90;;;;;;5066701;28;20245;-69
2023/08/05 00:57:12;;;;;;;4.93;4.40;;;18.10;99.90;;;;;;5066807;28;20632;-69
2023/08/05 00:59:38;;;;;;;4.47;4.00;;;18.10;99.90;;;;;;5064622;28;20285;-69
2023/08/05 01:02:03;;;;;;;4.60;4.20;;;18.20;99.90;;;;;;5066837;28;20180;-69
2023/08/05 01:04:29;;;;;;;7.40;4.33;;;18.10;99.90;;;;;;5067731;28;20664;-70
2023/08/05 01:06:56;;;;;;;7.18;4.13;;;18.10;99.90;;;;;;5048512;28;20188;-69
2023/08/05 01:09:22;;;;;;;6.35;4.45;;;18.10;99.90;;;;;;5061371;28;20213;-69
2023/08/05 01:11:48;;;;;;;5.00;4.40;;;18.10;99.90;;;;;;5067003;28;20220;-69
2023/08/05 01:14:14;;;;;;;5.43;4.93;;;18.10;99.90;;;;;;5047981;28;20704;-69
2023/08/05 01:16:42;;;;;;;5.60;4.17;;;18.10;99.90;;;;;;5066668;28;22104;-69
2023/08/05 01:19:17;;;;;;;5.03;4.40;;;18.30;99.90;;;;;;5066087;28;20180;-69
2023/08/05 01:22:06;;;;;;;4.82;4.07;;;18.00;99.90;;;;;;5045049;28;20180;-69
2023/08/05 01:24:48;;;;;;;4.65;4.00;;;17.90;99.90;;;;;;5065833;28;20205;-70
2023/08/05 01:27:13;;;;;;;4.47;4.07;;;17.90;99.90;;;;;;5066685;28;20207;-70
2023/08/05 01:29:39;;;;;;;4.50;4.20;;;18.00;99.90;;;;;;5064795;28;21807;-72
2023/08/05 01:32:07;;;;;;;5.70;4.20;;;18.00;99.90;;;;;;5065092;28;20191;-70
2023/08/05 01:34:33;;;;;;;5.57;5.00;;;18.00;99.90;;;;;;5066469;28;20227;-71
2023/08/05 01:36:59;;;;;;;4.47;3.95;;;18.00;99.90;;;;;;5064229;28;20539;-71
2023/08/05 01:39:24;;;;;;;4.50;4.20;;;18.20;99.90;;;;;;5046546;28;20184;-71
2023/08/05 01:41:50;;;;;;;4.47;4.07;;;18.00;99.90;;;;;;5066094;28;20664;-73
2023/08/05 01:44:15;;;;;;;4.50;4.10;;;18.00;99.90;;;;;;5063796;28;20650;-71
2023/08/05 01:46:41;;;;;;;5.00;3.70;;;18.00;99.90;;;;;;5049063;28;20191;-71
2023/08/05 01:49:07;;;;;;;4.40;4.00;;;18.00;99.90;;;;;;5065933;28;20184;-71
2023/08/05 01:51:32;;;;;;;8.10;4.20;;;18.00;99.90;;;;;;5064812;28;20208;-72
2023/08/05 01:53:58;;;;;;;5.23;4.27;;;18.20;99.90;;;;;;5065508;28;20519;-71
2023/08/05 01:56:23;;;;;;;4.40;4.00;;;18.00;99.90;;;;;;5066933;28;20262;-70
2023/08/05 01:58:49;;;;;;;4.40;4.00;;;18.00;99.90;;;;;;5065007;28;20208;-72
2023/08/05 02:01:15;;;;;;;5.53;3.93;;;18.00;99.90;;;;;;5047991;28;20235;-72
2023/08/05 02:03:40;;;;;;;4.90;3.90;;;18.10;99.90;;;;;;5048305;28;20185;-70
2023/08/05 02:06:06;;;;;;;4.70;4.30;;;18.00;99.90;;;;;;5067516;28;20200;-71
2023/08/05 02:08:31;;;;;;;4.60;3.93;;;17.90;99.90;;;;;;5063212;28;20693;-71
2023/08/05 02:10:57;;;;;;;9.40;4.63;;;17.90;99.90;;;;;;5070252;28;20185;-71
2023/08/05 02:13:22;;;;;;;4.83;4.37;;;17.80;99.90;;;;;;5066828;28;20601;-72
2023/08/05 02:15:48;;;;;;;4.73;4.20;;;17.80;99.90;;;;;;5070678;28;20235;-74
2023/08/05 02:18:14;;;;;;;4.33;3.90;;;18.00;99.90;;;;;;5051788;28;20180;-71
2023/08/05 02:20:39;;;;;;;5.13;4.73;;;17.90;99.90;;;;;;5050182;28;20201;-71
2023/08/05 02:23:05;;;;;;;4.53;3.87;;;17.90;99.90;;;;;;5050322;28;20605;-71
2023/08/05 02:25:30;;;;;;;4.40;4.00;;;17.70;99.90;;;;;;5070295;28;20295;-70
2023/08/05 02:27:56;;;;;;;5.13;4.33;;;17.70;99.90;;;;;;5050908;28;20186;-70
2023/08/05 02:30:22;;;;;;;6.67;4.30;;;17.70;99.90;;;;;;5054693;28;20396;-72
2023/08/05 02:32:47;;;;;;;5.00;4.27;;;17.60;99.90;;;;;;5069732;28;20181;-73
2023/08/05 02:35:13;;;;;;;3.77;3.47;;;17.50;99.90;;;;;;5051905;28;20205;-72
2023/08/05 02:37:39;;;;;;;5.10;4.37;;;17.70;99.90;;;;;;5048389;28;20268;-75
2023/08/05 02:40:05;;;;;;;5.50;5.00;;;17.40;99.90;;;;;;5063103;28;20208;-71
2023/08/05 02:42:30;;;;;;;5.13;4.30;;;17.30;99.90;;;;;;5066938;28;20769;-74
2023/08/05 02:44:56;;;;;;;5.37;4.87;;;17.30;99.90;;;;;;5066204;28;20200;-71
2023/08/05 02:47:22;;;;;;;4.97;4.57;;;17.40;99.90;;;;;;5070825;28;20208;-70
2023/08/05 02:49:47;;;;;;;4.60;4.20;;;17.30;99.90;;;;;;5071185;28;20185;-70
2023/08/05 02:52:13;;;;;;;5.23;4.00;;;17.30;99.90;;;;;;5066409;28;20288;-72
2023/08/05 02:54:38;;;;;;;5.43;4.30;;;17.00;99.90;;;;;;5070204;28;20619;-69
2023/08/05 02:57:04;;;;;;;4.80;4.40;;;17.10;99.90;;;;;;5068797;28;20214;-70
2023/08/05 02:59:30;;;;;;;6.00;4.70;;;17.20;99.90;;;;;;5065879;28;20181;-72
2023/08/05 03:01:55;;;;;;;6.27;4.60;;;17.00;99.90;;;;;;5069453;28;20273;-72
2023/08/05 03:04:21;;;;;;;7.77;4.70;;;17.00;99.90;;;;;;5048215;28;20235;-71
2023/08/05 03:06:46;;;;;;;4.80;4.30;;;16.80;99.90;;;;;;5061528;28;20526;-72
2023/08/05 03:09:13;;;;;;;5.37;4.53;;;17.00;99.90;;;;;;5050524;28;20189;-73
2023/08/05 03:11:39;;;;;;;4.90;4.50;;;17.10;99.90;;;;;;5068321;28;20458;-70
2023/08/05 03:14:04;;;;;;;5.50;5.00;;;17.00;99.90;;;;;;5049236;28;20617;-71
2023/08/05 03:16:30;;;;;;;5.87;5.10;;;17.00;99.90;;;;;;5069119;28;20212;-70
2023/08/05 03:18:56;;;;;;;5.47;4.90;;;16.90;99.90;;;;;;5066539;28;20235;-71
2023/08/05 03:21:21;;;;;;;5.57;5.07;;;17.10;99.90;;;;;;5068478;28;20417;-71
2023/08/05 03:23:47;;;;;;;7.90;5.53;;;17.00;99.90;;;;;;5048500;28;20221;-73
2023/08/05 03:26:12;;;;;;;5.90;5.10;;;17.10;99.90;;;;;;5050139;28;20216;-70
2023/08/05 03:28:38;;;;;;;5.60;4.53;;;17.00;99.90;;;;;;5066971;28;20192;-72
2023/08/05 03:31:04;;;;;;;7.03;5.33;;;16.90;99.90;;;;;;5068998;28;20177;-72
2023/08/05 03:33:29;;;;;;;5.60;4.90;;;17.10;99.90;;;;;;5050526;28;20443;-71
2023/08/05 03:35:55;;;;;;;5.03;4.60;;;17.30;99.90;;;;;;5069324;28;20213;-72
2023/08/05 03:38:21;;;;;;;7.50;6.30;;;17.00;99.90;;;;;;5064795;28;20645;-72
2023/08/05 03:40:46;;;;;;;5.63;5.03;;;17.10;99.90;;;;;;5067907;28;20338;-73
2023/08/05 03:43:12;;;;;;;8.40;4.60;;;17.10;99.90;;;;;;5065474;28;20189;-71
2023/08/05 03:45:37;;;;;;;4.90;4.20;;;17.30;99.90;;;;;;5068934;28;20212;-72
2023/08/05 03:48:03;;;;;;;5.57;5.00;;;17.10;99.90;;;;;;5068584;28;20601;-69
2023/08/05 03:50:29;;;;;;;6.83;5.00;;;17.20;99.90;;;;;;5065365;28;20196;-70
2023/08/05 03:52:55;;;;;;;5.70;4.70;;;17.10;99.90;;;;;;5068255;28;20439;-70
2023/08/05 03:55:24;;;;;;;6.93;4.70;;;17.00;99.90;;;;;;5069022;28;20219;-70
2023/08/05 03:57:50;;;;;;;9.55;5.38;;;17.10;99.90;;;;;;5063207;28;20522;-70
2023/08/05 04:00:17;;;;;;;5.13;4.73;;;17.20;99.90;;;;;;5068042;28;20196;-70
2023/08/05 04:02:42;;;;;;;10.23;5.28;;;17.50;99.90;;;;;;5067382;28;20224;-70
2023/08/05 04:05:09;;;;;;;8.43;5.60;;;17.20;99.90;;;;;;5049993;28;20266;-70
2023/08/05 04:07:35;;;;;;;6.80;5.22;;;17.40;99.90;;;;;;5066843;28;20611;-70
2023/08/05 04:10:02;;;;;;;6.07;5.47;;;17.30;99.90;;;;;;5067252;28;20196;-70
2023/08/05 04:12:28;;;;;;;5.35;4.75;;;17.10;99.90;;;;;;5050127;28;20435;-70
2023/08/05 04:14:57;;;;;;;5.30;4.80;;;17.00;99.90;;;;;;5066937;28;20255;-70
2023/08/05 04:17:23;;;;;;;5.18;4.60;;;16.90;99.90;;;;;;5067909;28;20230;-70
2023/08/05 04:19:50;;;;;;;5.53;5.03;;;17.00;99.90;;;;;;5066780;28;20189;-70
2023/08/05 04:22:19;;;;;;;6.38;5.13;;;17.00;99.90;;;;;;5064900;28;20199;-70
2023/08/05 04:24:45;;;;;;;4.50;4.10;;;16.80;99.90;;;;;;5049868;28;20209;-69
2023/08/05 04:27:11;;;;;;;6.90;5.40;;;17.30;99.90;;;;;;5067791;28;20192;-71
2023/08/05 04:29:37;;;;;;;10.27;5.63;;;17.20;99.90;;;;;;5065170;28;20876;-71
2023/08/05 04:32:03;;;;;;;5.43;4.90;;;17.20;99.90;;;;;;5069768;28;20223;-71
2023/08/05 04:34:33;;;;;;;7.18;5.22;;;17.20;99.90;;;;;;5048878;28;20216;-69
2023/08/05 04:37:18;;;;;;;5.65;4.82;;;17.10;99.90;;;;;;5049152;28;20512;-69
2023/08/05 04:39:44;;;;;;;5.70;5.20;;;18.20;99.90;;;;;;5066072;28;20942;-70
2023/08/05 04:42:10;;;;;;;5.35;4.85;;;17.10;99.90;;;;;;5066677;28;20181;-70
2023/08/05 04:44:37;;;;;;;5.20;4.80;;;17.00;99.90;;;;;;5064028;28;20254;-70
2023/08/05 04:47:04;;;;;;;6.40;5.47;;;17.00;99.90;;;;;;5048478;28;20467;-70
2023/08/05 04:49:29;;;;;;;5.55;5.07;;;17.20;99.90;;;;;;5066227;28;20218;-70
2023/08/05 04:52:06;;;;;;;8.48;5.50;;;17.30;99.90;;;;;;5103259;27;20560;-69
2023/08/05 04:54:35;;;;;;;5.55;4.95;;;17.10;99.90;;;;;;5103946;27;20889;-69
2023/08/05 04:57:01;;;;;;;5.68;4.97;;;17.20;99.90;;;;;;5104412;28;20820;-69
2023/08/05 04:59:26;;;;;;;6.17;5.00;;;17.20;99.90;;;;;;5120818;27;20179;-69
2023/08/05 05:01:52;;;;;;;6.97;5.03;;;17.20;99.90;;;;;;5105686;27;20182;-70
2023/08/05 05:04:18;;;;;;;5.60;4.77;;;17.10;99.90;;;;;;5123963;27;20179;-70
2023/08/05 05:06:43;;;;;;;7.50;5.47;;;17.20;99.90;;;;;;5103529;27;20357;-69
2023/08/05 05:09:09;;;;;;;5.70;5.00;;;17.30;99.90;;;;;;5121948;27;20668;-69
2023/08/05 05:11:35;;;;;;;4.83;4.33;;;17.40;99.90;;;;;;5122800;27;20631;-70
2023/08/05 05:14:01;;;;;;;4.73;4.23;;;17.40;99.90;;;;;;5119408;27;20447;-70
2023/08/05 05:16:26;;;;;;;5.20;4.77;;;17.30;99.90;;;;;;5105883;28;20194;-70
2023/08/05 05:18:52;;;;;;;5.57;5.07;;;17.10;99.90;;;;;;5104138;27;20180;-70
2023/08/05 05:21:17;;;;;;;4.97;4.47;;;17.30;99.90;;;;;;5122825;27;20212;-69
2023/08/05 05:23:43;;;;;;;6.10;4.47;;;17.60;99.90;;;;;;5125825;27;20799;-70
2023/08/05 05:26:09;;;;;;;8.60;5.07;;;17.40;99.90;;;;;;5127325;27;20298;-69
2023/08/05 05:28:34;;;;;;;6.80;4.57;;;17.50;99.90;;;;;;5101880;27;20436;-70
2023/08/05 05:31:03;;;;;;;5.80;4.57;;;17.50;99.90;;;;;;5105157;28;20210;-70
2023/08/05 05:33:29;;;;;;;5.80;5.22;;;17.50;99.90;;;;;;5103747;27;20182;-69
2023/08/05 05:35:54;;;;;;;6.30;5.50;;;17.40;99.90;;;;;;5126624;27;20643;-70
2023/08/05 05:38:20;;;;;;;4.80;4.40;;;17.20;99.90;;;;;;5120549;27;20178;-70
2023/08/05 05:40:46;;;;;;;7.60;5.47;;;17.30;99.90;;;;;;5125965;27;20179;-70
2023/08/05 05:43:11;;;;;;;7.37;4.97;;;17.40;99.90;;;;;;5123016;27;20179;-70
2023/08/05 05:45:37;;;;;;;5.67;5.17;;;17.40;99.90;;;;;;5126786;27;20732;-70
2023/08/05 05:48:03;;;;;;;5.23;4.73;;;17.50;99.90;;;;;;5125431;27;20186;-70
2023/08/05 05:50:29;;;;;;;5.18;4.70;;;17.30;99.90;;;;;;5119828;27;20609;-69
2023/08/05 05:52:55;;;;;;;4.70;4.30;;;17.40;99.90;;;;;;5101198;27;20171;-69
2023/08/05 05:55:20;;;;;;;6.07;4.60;;;17.40;99.90;;;;;;5125283;27;20857;-70
2023/08/05 05:57:46;;;;;;;6.20;5.37;;;17.70;99.90;;;;;;5103171;27;20258;-70
2023/08/05 06:00:14;;;;;;;5.63;5.03;;;17.50;99.90;;;;;;5120781;27;20794;-69
2023/08/05 06:02:40;;;;;;;5.70;5.10;;;17.30;99.90;;;;;;5093652;28;20314;-69
2023/08/05 06:05:06;;;;;;;4.90;4.40;;;17.30;99.90;;;;;;5089147;28;20286;-69
2023/08/05 06:07:32;;;;;;;5.35;4.55;;;17.30;99.90;;;;;;5104851;28;20183;-69
2023/08/05 06:09:57;;;;;;;7.77;5.53;;;17.50;99.90;;;;;;5112010;27;20211;-70
2023/08/05 06:12:27;;;;;;;6.97;5.27;;;17.40;99.90;;;;;;5109150;27;20846;-69
2023/08/05 06:14:53;;;;;;;4.72;4.15;;;17.80;99.90;;;;;;5106530;28;20200;-70
2023/08/05 06:17:18;;;;;;;4.80;4.20;;;17.60;99.90;;;;;;5076150;28;20667;-66
2023/08/05 06:19:44;;;;;;;5.07;4.67;;;17.60;99.90;;;;;;5104779;27;20183;-70
2023/08/05 06:22:10;;;;;;;4.90;4.27;;;17.90;99.90;;;;;;5085411;28;20270;-70
2023/08/05 06:24:35;;;;;;;4.83;3.90;;;18.10;99.90;;;;;;5088472;28;20207;-70
2023/08/05 06:27:01;;;;;;;5.40;4.90;;;18.40;99.90;;;;;;5089910;27;20177;-67
2023/08/05 06:29:27;;;;;;;5.43;4.20;;;18.60;99.90;;;;;;5102341;28;20179;-67
2023/08/05 06:31:52;;;;;;;5.03;4.63;;;18.60;99.90;;;;;;5089691;28;20600;-67
2023/08/05 06:34:20;;;;;;;5.23;3.60;;;18.70;99.90;;;;;;5109450;27;20255;-67
2023/08/05 06:36:45;;;;;;;3.75;3.45;;;19.00;99.90;;;;;;5102547;28;20180;-67
2023/08/05 06:39:11;;;;;;;5.97;3.50;;;19.00;99.90;;;;;;5104602;27;20191;-67
2023/08/05 06:41:36;;;;;;;4.33;3.70;;;19.20;99.90;;;;;;5104801;27;20187;-67
2023/08/05 06:44:02;;;;;;;4.20;3.70;;;19.40;99.90;;;;;;5089416;27;20179;-67
2023/08/05 06:46:28;;;;;;;5.67;3.90;;;19.60;99.90;;;;;;5108472;27;20583;-66
2023/08/05 06:48:53;;;;;;;4.60;3.93;;;19.50;99.90;;;;;;5104935;27;20616;-67
2023/08/05 06:51:19;;;;;;;3.57;3.27;;;19.70;99.90;;;;;;5104169;27;20211;-67
2023/08/05 06:53:44;;;;;;;6.20;4.10;;;19.90;99.90;;;;;;5103719;27;20187;-66
2023/08/05 06:56:11;;;;;;;4.50;4.10;;;19.80;99.90;;;;;;5104074;27;20207;-67
2023/08/05 06:58:36;;;;;;;4.25;3.83;;;20.00;99.90;;;;;;5085036;28;20278;-67
2023/08/05 07:01:02;;;;;;;5.23;3.53;;;20.00;99.90;;;;;;5106922;27;20300;-67
2023/08/05 07:03:28;;;;;;;5.53;4.10;;;20.00;99.90;;;;;;5107233;27;20187;-67
2023/08/05 07:05:57;;;;;;;3.65;3.35;;;20.20;99.90;;;;;;5105477;27;20328;-67
2023/08/05 07:08:24;;;;;;;4.25;3.85;;;20.30;99.90;;;;;;5106832;28;20256;-66
2023/08/05 07:10:57;;;;;;;4.40;3.47;;;20.30;99.90;;;;;;5107301;27;20195;-67
2023/08/05 07:13:23;;;;;;;4.00;3.70;;;20.30;99.90;;;;;;5100656;28;20291;-67
2023/08/05 07:15:49;;;;;;;3.80;3.50;;;20.70;99.90;;;;;;5104613;28;20221;-66
2023/08/05 07:18:14;;;;;;;4.33;3.97;;;20.80;99.90;;;;;;5105413;27;20507;-66
2023/08/05 07:20:40;;;;;;;4.90;4.00;;;21.10;99.90;;;;;;5105847;28;20244;-67
2023/08/05 07:23:06;;;;;;;4.77;3.83;;;20.90;99.90;;;;;;5104803;27;20183;-66
2023/08/05 07:25:32;;;;;;;5.60;4.73;;;21.00;99.90;;;;;;5107482;27;20472;-66
2023/08/05 07:27:57;;;;;;;9.13;4.30;;;20.80;99.90;;;;;;5105724;27;20667;-67
2023/08/05 07:30:23;;;;;;;4.37;3.97;;;21.20;99.90;;;;;;5109178;27;20286;-66
2023/08/05 07:32:48;;;;;;;4.40;4.00;;;21.00;99.90;;;;;;5107260;27;20206;-66
2023/08/05 07:35:14;;;;;;;3.90;3.60;;;21.20;99.90;;;;;;5104403;28;20207;-66
2023/08/05 07:37:42;;;;;;;3.90;3.60;;;21.10;99.90;;;;;;5104859;27;21778;-65
2023/08/05 07:40:12;;;;;;;3.55;3.22;;;21.20;99.90;;;;;;5107141;27;20329;-66
2023/08/05 07:42:39;;;;;;;3.70;3.40;;;20.90;99.90;;;;;;5106055;28;20182;-65
2023/08/05 07:45:09;;;;;;;3.67;3.20;;;20.90;99.90;;;;;;5102283;27;20207;-67
2023/08/05 07:47:40;;;;;;;3.70;3.40;;;21.10;99.90;;;;;;5086214;28;20198;-67
2023/08/05 07:50:07;;;;;;;7.75;4.50;;;20.80;99.90;;;;;;5103485;28;20215;-68
2023/08/05 07:52:33;;;;;;;4.78;4.38;;;20.50;99.90;;;;;;5102853;28;20176;-69
2023/08/05 07:54:59;;;;;;;3.50;3.20;;;20.70;99.90;;;;;;5104080;28;20291;-69
2023/08/05 07:57:25;;;;;;;3.63;3.33;;;20.80;99.90;;;;;;5082919;28;20448;-68
2023/08/05 07:59:52;;;;;;;4.90;4.37;;;21.10;99.90;;;;;;5100155;27;20188;-69
2023/08/05 08:02:17;;;;;;;4.10;3.80;;;21.40;99.90;;;;;;5105184;28;20175;-72
2023/08/05 08:04:44;;;;;;;5.03;4.53;;;21.70;99.50;;;;;;5104355;28;20578;-72
2023/08/05 08:07:10;;;;;;;3.70;3.43;;;22.20;98.90;;;;;;5104787;27;20266;-71
2023/08/05 08:09:35;;;;;;;4.00;3.70;;;22.90;97.40;;;;;;5094984;28;20885;-69
2023/08/05 08:12:01;;;;;;;4.30;3.90;;;23.30;96.50;;;;;;5084816;28;20219;-67
2023/08/05 08:14:27;;;;;;;3.83;3.50;;;23.70;95.80;;;;;;5103421;27;20257;-67
2023/08/05 08:16:52;;;;;;;3.47;3.17;;;24.80;94.60;;;;;;5083634;27;20274;-69
2023/08/05 08:19:18;;;;;;;4.97;3.20;;;25.70;92.60;;;;;;5086850;28;20222;-69
2023/08/05 08:21:45;;;;;;;3.50;3.20;;;27.30;89.80;;;;;;5100227;27;20440;-68
2023/08/05 08:24:11;;;;;;;3.27;2.90;;;26.60;87.10;;;;;;5087261;28;20445;-68
2023/08/05 08:26:36;;;;;;;3.40;3.10;;;25.50;89.60;;;;;;5101876;28;20445;-67
2023/08/05 08:29:02;;;;;;;3.10;2.63;;;25.90;90.00;;;;;;5082511;28;20187;-68
2023/08/05 08:31:30;;;;;;;4.63;2.90;;;25.60;90.10;;;;;;5106479;28;20575;-68
2023/08/05 08:33:56;;;;;;;3.60;3.00;;;25.70;90.20;;;;;;5105592;28;20233;-68
2023/08/05 08:36:23;;;;;;;3.03;2.70;;;27.10;87.50;;;;;;5101764;28;20459;-68
2023/08/05 08:38:48;;;;;;;2.70;2.40;;;27.10;84.90;;;;;;5100136;28;20441;-68
2023/08/05 08:41:14;;;;;;;3.07;2.70;;;27.40;84.90;;;;;;5083942;28;20438;-68
2023/08/05 08:43:41;;;;;;;3.20;2.90;;;28.80;81.30;;;;;;5083524;28;20196;-68
2023/08/05 08:46:08;;;;;;;3.20;2.90;;;29.70;78.30;;;;;;5101532;28;20283;-68
2023/08/05 08:48:37;;;;;;;3.47;2.77;;;30.60;74.60;;;;;;5100533;28;20477;-68
2023/08/05 08:51:03;;;;;;;5.43;3.07;;;30.40;70.80;;;;;;5101171;28;20872;-69
2023/08/05 08:53:32;;;;;;;3.40;3.10;;;29.10;72.50;;;;;;5107481;28;20557;-69
2023/08/05 08:55:58;;;;;;;3.40;3.03;;;28.60;74.30;;;;;;5087801;28;20466;-69
2023/08/05 08:58:23;;;;;;;3.60;3.30;;;27.50;78.20;;;;;;5106187;28;20501;-69
2023/08/05 09:00:50;;;;;;;3.30;3.00;;;28.00;78.30;;;;;;5109594;28;20569;-69
2023/08/05 09:03:17;;;;;;;3.10;2.80;;;29.10;75.30;;;;;;5084667;28;20190;-68
2023/08/05 09:06:01;;;;;;;3.00;2.70;;;29.60;73.70;;;;;;5107034;28;20456;-67
2023/08/05 09:08:28;;;;;;;3.23;3.03;;;29.40;71.80;;;;;;5105694;28;20475;-68
2023/08/05 09:10:54;;;;;;;3.80;3.50;;;29.50;72.40;;;;;;5102644;28;20974;-68
2023/08/05 09:13:20;;;;;;;3.47;2.90;;;30.20;70.90;;;;;;5088466;28;20487;-68
2023/08/05 09:15:47;;;;;;;3.10;2.83;;;31.90;66.00;;;;;;5105951;28;20992;-69
2023/08/05 09:18:13;;;;;;;2.60;2.40;;;33.10;61.40;;;;;;5100758;28;20433;-68
2023/08/05 09:20:38;;;;;;;3.10;2.90;;;33.20;59.00;;;;;;5083481;28;20448;-68
2023/08/05 09:23:09;;;;;;;3.40;2.87;;;33.80;57.60;;;;;;5102473;28;20228;-68
2023/08/05 09:25:40;;;;;;;2.67;2.47;;;31.60;59.70;;;;;;5086819;28;20226;-70
2023/08/05 09:28:06;;;;;;;2.70;2.33;;;33.40;57.60;;;;;;5102354;28;20511;-69
2023/08/05 09:30:33;;;;;;;2.67;2.50;;;34.80;55.00;;;;;;5085375;28;21286;-68
2023/08/05 09:32:59;;;;;;;2.97;2.70;;;33.10;55.80;;;;;;5100045;28;20723;-68
2023/08/05 09:35:26;;;;;;;4.13;3.83;;;31.40;58.50;;;;;;5108587;28;20446;-68
2023/08/05 09:37:52;;;;;;;2.50;2.30;;;29.70;60.40;;;;;;5107164;27;20959;-68
2023/08/05 09:40:21;;;;;;;3.07;2.83;;;29.10;62.90;;;;;;5109782;27;20567;-68
2023/08/05 09:42:48;;;;;;;2.50;2.40;;;28.30;65.60;;;;;;5108081;28;20544;-69
2023/08/05 09:45:15;;;;;;;3.10;2.70;;;29.10;63.70;;;;;;5090447;28;20453;-68
2023/08/05 09:47:42;;;;;;;2.50;2.27;;;28.90;63.30;;;;;;5103447;27;20801;-68
2023/08/05 09:50:12;;;;;;;2.53;2.33;;;28.80;62.10;;;;;;5108522;27;20470;-68
2023/08/05 09:52:39;;;;;;;2.60;2.40;;;28.30;63.70;;;;;;5099032;27;20447;-69
2023/08/05 09:55:14;;;;;;;2.60;2.40;;;27.50;64.90;;;;;;5095270;27;20454;-69
2023/08/05 09:57:41;;;;;;;3.90;3.50;;;26.80;67.60;;;;;;5104996;27;20436;-69
2023/08/05 10:00:10;;;;;;;2.93;2.23;;;26.30;70.20;;;;;;5110024;27;20463;-69
2023/08/05 10:02:39;;;;;;;2.70;2.50;;;25.60;71.30;;;;;;5109420;27;20954;-68
2023/08/05 10:05:05;;;;;;;2.10;2.00;;;25.10;72.80;;;;;;5108465;27;20458;-68
2023/08/05 10:07:31;;;;;;;2.40;2.20;;;24.90;73.90;;;;;;5105281;27;20445;-68
2023/08/05 10:09:58;;;;;;;2.60;2.30;;;24.40;75.80;;;;;;5111114;27;20969;-68
2023/08/05 10:12:35;;;;;;;2.80;2.60;;;24.30;76.50;;;;;;5093252;27;20188;-69
2023/08/05 10:15:03;;;;;;;2.70;2.50;;;24.00;76.50;;;;;;5089486;27;20468;-68
2023/08/05 10:17:29;;;;;;;4.40;2.37;;;23.40;76.80;;;;;;5113685;27;20491;-68
2023/08/05 10:19:54;;;;;;;2.33;2.13;;;23.00;79.90;;;;;;5110228;28;20433;-69
2023/08/05 10:22:22;;;;;;;2.97;2.50;;;23.00;80.10;;;;;;5105869;27;20463;-68
2023/08/05 10:24:54;;;;;;;3.50;3.20;;;23.00;82.80;;;;;;5088546;28;20203;-68
2023/08/05 10:27:43;;;;;;;3.87;2.60;;;23.00;83.00;;;;;;5106675;27;20480;-69
2023/08/05 10:30:14;;;;;;;3.17;2.80;;;23.00;82.60;;;;;;5106538;27;20502;-68
2023/08/05 10:32:52;;;;;;;2.53;2.33;;;22.70;85.00;;;;;;5108837;28;20440;-69
2023/08/05 10:35:25;;;;;;;3.40;2.60;;;22.50;85.60;;;;;;5104154;28;20540;-69
2023/08/05 10:38:03;;;;;;;3.20;2.67;;;22.30;85.20;;;;;;5103179;27;20437;-68
2023/08/05 10:40:48;;;;;;;3.53;2.47;;;22.40;86.60;;;;;;5103786;27;20445;-70
2023/08/05 10:43:27;;;;;;;5.13;3.13;;;22.40;87.10;;;;;;5106798;27;20437;-68
2023/08/05 10:45:53;;;;;;;4.40;2.90;;;22.40;85.40;;;;;;5105179;27;20555;-69
2023/08/05 10:48:19;;;;;;;2.50;2.30;;;22.20;85.90;;;;;;5089467;28;20469;-69
2023/08/05 10:50:48;;;;;;;3.83;2.43;;;22.40;86.50;;;;;;5110325;27;20469;-69
2023/08/05 10:53:14;;;;;;;4.03;3.60;;;22.30;86.10;;;;;;5107008;28;20457;-69
2023/08/05 10:55:49;;;;;;;2.50;2.30;;;22.20;86.00;;;;;;5113813;27;20457;-69
2023/08/05 10:58:20;;;;;;;2.10;1.90;;;22.30;84.00;;;;;;5109535;27;20393;-69
2023/08/05 11:00:59;;;;;;;2.73;2.53;;;22.50;84.10;;;;;;5112779;27;20434;-69
2023/08/05 11:03:41;;;;;;;4.20;2.63;;;22.60;85.80;;;;;;5104466;28;20489;-69
2023/08/05 11:06:07;;;;;;;2.80;2.60;;;22.40;86.20;;;;;;5107921;27;20460;-69
2023/08/05 11:08:35;;;;;;;2.73;2.53;;;22.40;86.60;;;;;;5109391;27;20486;-69
2023/08/05 11:11:14;;;;;;;4.13;2.80;;;22.30;86.90;;;;;;5106885;27;20469;-68
2023/08/05 11:13:46;;;;;;;3.40;3.10;;;22.50;88.10;;;;;;5105837;28;20482;-69
2023/08/05 11:16:16;;;;;;;3.03;2.80;;;22.60;87.70;;;;;;5108750;28;20528;-69
2023/08/05 11:18:45;;;;;;;2.60;2.40;;;22.70;86.90;;;;;;5092410;28;20434;-69
2023/08/05 11:21:13;;;;;;;3.30;3.00;;;22.90;86.20;;;;;;5106862;27;20498;-69
2023/08/05 11:23:42;;;;;;;3.70;2.70;;;22.70;87.10;;;;;;5107230;28;20859;-69
2023/08/05 11:26:09;;;;;;;2.53;2.33;;;22.90;87.30;;;;;;5103845;27;20464;-69
2023/08/05 11:28:40;;;;;;;3.63;3.20;;;23.00;85.90;;;;;;5088238;27;20432;-69
2023/08/05 11:31:06;;;;;;;3.17;2.73;;;23.00;86.60;;;;;;5108986;27;20871;-70
2023/08/05 11:33:32;;;;;;;2.93;2.73;;;23.10;87.10;;;;;;5106704;28;20441;-69
2023/08/05 11:35:58;;;;;;;3.37;3.07;;;23.10;86.80;;;;;;5108116;27;20208;-69
2023/08/05 11:38:24;;;;;;;3.00;2.63;;;23.20;85.50;;;;;;5104947;28;20456;-69
2023/08/05 11:40:54;;;;;;;3.40;3.10;;;23.40;84.60;;;;;;5106090;27;20905;-69
2023/08/05 11:43:21;;;;;;;2.73;2.53;;;23.40;84.40;;;;;;5108086;27;20441;-68
2023/08/05 11:45:51;;;;;;;2.90;2.70;;;23.60;85.10;;;;;;5103551;27;20471;-69
2023/08/05 11:48:23;;;;;;;3.30;3.00;;;23.50;83.80;;;;;;5108262;27;20448;-68
2023/08/05 11:50:50;;;;;;;2.80;2.60;;;23.50;83.00;;;;;;5107096;27;20473;-68
2023/08/05 11:53:17;;;;;;;3.13;2.90;;;23.80;82.80;;;;;;5103519;27;20516;-69
2023/08/05 11:55:44;;;;;;;3.20;2.97;;;23.90;80.60;;;;;;5104847;27;20549;-69
2023/08/05 11:58:13;;;;;;;3.10;2.27;;;24.00;80.60;;;;;;5099486;27;21655;-68
2023/08/05 12:00:52;;;;;;;2.60;2.40;;;24.60;80.20;;;;;;5101986;28;20452;-68
2023/08/05 12:03:17;;;;;;;3.20;2.23;;;25.10;77.60;;;;;;5106834;27;20435;-68
2023/08/05 12:05:44;;;;;;;3.20;3.00;;;25.20;77.00;;;;;;5087637;28;20489;-69
2023/08/05 12:08:11;;;;;;;2.50;2.30;;;24.60;77.10;;;;;;5082319;28;20197;-68
2023/08/05 12:10:37;;;;;;;2.70;2.50;;;24.90;77.80;;;;;;5101262;28;20558;-68
2023/08/05 12:13:05;;;;;;;2.40;2.20;;;25.30;77.00;;;;;;5103268;27;20511;-67
2023/08/05 12:15:31;;;;;;;3.70;2.70;;;25.50;76.10;;;;;;5102989;27;20460;-69
2023/08/05 12:18:06;;;;;;;2.20;2.10;;;25.70;75.90;;;;;;5081307;28;20536;-68
2023/08/05 12:20:36;;;;;;;2.60;2.40;;;25.60;74.60;;;;;;5102518;28;20973;-68
2023/08/05 12:23:03;;;;;;;3.53;2.40;;;25.50;74.50;;;;;;5081872;28;20496;-69
2023/08/05 12:25:31;;;;;;;2.87;2.67;;;24.50;75.90;;;;;;5100448;27;20802;-69
2023/08/05 12:27:58;;;;;;;3.27;2.57;;;24.20;78.80;;;;;;5098707;28;20450;-69
2023/08/05 12:30:24;;;;;;;3.23;2.80;;;24.20;79.80;;;;;;5104531;27;20475;-69
2023/08/05 12:32:49;;;;;;;2.90;2.70;;;24.20;80.70;;;;;;5105556;27;20441;-69
2023/08/05 12:35:15;;;;;;;3.17;2.97;;;24.10;80.30;;;;;;5101640;27;20212;-68
2023/08/05 12:37:42;;;;;;;3.20;3.00;;;24.10;82.20;;;;;;5098390;27;20433;-68
2023/08/05 12:40:12;;;;;;;3.40;3.10;;;24.10;81.00;;;;;;5104639;27;20596;-68
2023/08/05 12:42:38;;;;;;;2.97;2.67;;;23.90;82.30;;;;;;5103057;28;20446;-68
2023/08/05 12:45:05;;;;;;;3.83;3.23;;;24.20;82.70;;;;;;5106169;28;20476;-67
2023/08/05 12:47:31;;;;;;;3.13;2.93;;;24.40;82.10;;;;;;5102133;28;21035;-69